Central Sierra Snow Lab Weather observations

Data are for 10 minute period ending at time listed.
 Day   Time    Incoming  Reflected   Ave.   Ave.    Ave.    Vector  Max.    Ave.    Total    Snow   
  of    of      Solar     Solar      Air    Rel.    Wind    Wind    Wind   Baro.   Precip.   Depth  
Year   Day     Radiation Radiation   Temp.  Humid.  Speed   Dir.    Gust   Press.                   
2014   (PST)    Kw/m2     Kw/m2       F       %      mph     deg.    mph     mb.     in.      in.   
----------------------------------------------------------------------------------------------------
 361    7:30    0.999     999.000    999.0    999   999.0     999   999.0   999.00   999.00   999.00  
 361    7:40    0.999     999.000    999.0    999   999.0     999   999.0   999.00   999.00   999.00  
 361    7:50    0.999     999.000    999.0    999   999.0     999   999.0   999.00   999.00   999.00  
 361    8:00    0.999     999.000    999.0    999   999.0     999   999.0   999.00   999.00   999.00  
 361    8:10    0.999     999.000    999.0    999   999.0     999   999.0   999.00   999.00   999.00  
 361    8:20    0.999     999.000    999.0    999   999.0     999   999.0   999.00   999.00   999.00  
 361    8:30    0.999     999.000    999.0    999   999.0     999   999.0   999.00   999.00   999.00  
 361    8:40    0.999     999.000    999.0    999   999.0     999   999.0   999.00   999.00   999.00  
 361    8:50    0.999     999.000    999.0    999   999.0     999   999.0   999.00   999.00   999.00  
 361    9:00    0.999     999.000    999.0    999   999.0     999   999.0   999.00   999.00   999.00  
 361    9:10    0.999     999.000    999.0    999   999.0     999   999.0   999.00   999.00   999.00  
 361    9:20    0.999     999.000    999.0    999   999.0     999   999.0   999.00   999.00   999.00  
 361    9:30    0.999     999.000    999.0    999   999.0     999   999.0   999.00   999.00   999.00  
 361    9:40    0.999     999.000    999.0    999   999.0     999   999.0   999.00   999.00   999.00  
 361    9:50    0.999     999.000    999.0    999   999.0     999   999.0   999.00   999.00   999.00  
 361   10:00    0.999     999.000    999.0    999   999.0     999   999.0   999.00   999.00   999.00  
 361   10:10    0.999     999.000    999.0    999   999.0     999   999.0   999.00   999.00   999.00  
 361   10:20    0.999     999.000    999.0    999   999.0     999   999.0   999.00   999.00   999.00  
 361   10:30    0.999     999.000    999.0    999   999.0     999   999.0   999.00   999.00   999.00  
 361   10:40    0.999     999.000    999.0    999   999.0     999   999.0   999.00   999.00   999.00  
 361   10:50    0.999     999.000    999.0    999   999.0     999   999.0   999.00   999.00   999.00  
 361   11:00    0.999     999.000    999.0    999   999.0     999   999.0   999.00   999.00   999.00  
 361   11:10    0.999     999.000    999.0    999   999.0     999   999.0   999.00   999.00   999.00  
 361   11:20    0.999     999.000    999.0    999   999.0     999   999.0   999.00   999.00   999.00  
 361   11:30    0.999     999.000    999.0    999   999.0     999   999.0   999.00   999.00   999.00  
 361   11:40    0.999     999.000    999.0    999   999.0     999   999.0   999.00   999.00   999.00  
 361   11:50    0.999     999.000    999.0    999   999.0     999   999.0   999.00   999.00   999.00  
 361   12:00    0.999     999.000    999.0    999   999.0     999   999.0   999.00   999.00   999.00  
 361   12:10    0.999     999.000    999.0    999   999.0     999   999.0   999.00   999.00   999.00  
 361   12:20    0.999     999.000    999.0    999   999.0     999   999.0   999.00   999.00   999.00  
 361   12:30    0.999     999.000    999.0    999   999.0     999   999.0   999.00   999.00   999.00  
 361   12:40    0.999     999.000    999.0    999   999.0     999   999.0   999.00   999.00   999.00  
 361   12:50    0.999     999.000    999.0    999   999.0     999   999.0   999.00   999.00   999.00  
 361   13:00    0.999     999.000    999.0    999   999.0     999   999.0   999.00   999.00   999.00  
 361   13:10    0.999     999.000    999.0    999   999.0     999   999.0   999.00   999.00   999.00  
 361   13:20    0.999     999.000    999.0    999   999.0     999   999.0   999.00   999.00   999.00  
 361   13:30    0.999     999.000    999.0    999   999.0     999   999.0   999.00   999.00   999.00  
 361   13:40    0.999     999.000    999.0    999   999.0     999   999.0   999.00   999.00   999.00  
 361   13:50    0.415     999.000     40.3     22     2.5     228     6.0   794.80    7.65   -358.80  
 361   14:00    0.381     999.000     39.6     21     2.3     207     6.4   794.70    7.65   -358.80  
 361   14:10    0.244     999.000     39.8     19     2.8     236     7.0   794.60    7.65   -358.80  
 361   14:20    0.286     999.000     39.2     20     3.0     246     6.8   794.60    7.65   -358.80  
 361   14:30    0.334     999.000     38.8     21     2.7     246     7.4   794.50    7.65   -358.80  
 361   14:40    0.128     999.000     38.8     22     2.0     249     6.2   794.40    7.65   -358.80  
 361   14:50    0.063     999.000     38.4     24     1.8     214     5.8   794.50    7.64   -358.80  
 361   15:00    0.041     999.000     37.2     26     2.4     272     6.6   794.70    7.65   -358.80  
 361   15:10    0.043     999.000     36.1     28     1.4     290     4.7   794.90    7.64   -358.80  
 361   15:20    0.037     999.000     35.7     29     2.3     266     6.8   794.90    7.65   -358.80  
 361   15:30    0.037     999.000     34.8     31     2.2     232     7.2   795.00    7.65   -358.80  
 361   15:40    0.034     999.000     34.3     38     2.1     215     4.9   794.90    7.65   -358.90  
 361   15:50    0.038     999.000     33.7     44     1.4     215     4.3   794.90    7.65   -358.90  
 361   16:00    0.037     999.000     32.8     46     1.7     258     5.0   795.00    7.65   -358.90  
 361   16:10    0.024     999.000     32.1     46     2.2     265     6.5   795.20    7.65   -358.90  
 361   16:20    0.014     999.000     31.3     53     1.9     291     5.4   795.30    7.65   -358.90  
 361   16:30    0.009     999.000     30.4     60     0.6     256     2.8   795.30    7.65   -358.90  
 361   16:40    0.005     999.000     29.6     64     1.2     276     4.7   795.40    7.65   -358.90  
 361   16:50    0.002     999.000     29.0     65     1.1     136     2.3   795.40    7.65   -358.90  
 361   17:00    0.001     999.000     28.3     66     0.2     156     1.7   795.40    7.65   -358.90  
 361   17:10    0.000     999.000     27.7     68     1.4     107     2.0   795.50    7.65   -358.90  
 361   17:20    0.000     999.000     27.4     69     0.1     137     1.6   795.50    7.65   -358.90  
 361   17:30    0.000     999.000     26.7     72     0.9      25     1.9   795.60    7.65   -358.90  
 361   17:40    0.000     999.000     26.8     72     0.3      57     1.5   795.70    7.65   -358.90  
 361   17:50    0.000     999.000     26.9     72     1.0      76     2.1   795.70    7.65   -358.90  
 361   18:00    0.000     999.000     26.1     74     1.0      35     1.9   795.70    7.65   -358.90  
 361   18:10    0.000     999.000     25.8     75     0.3      30     1.5   795.70    7.65   -359.00  
 361   18:20    0.000     999.000     25.6     75     1.4      30     2.9   795.80    7.65   -359.00  
 361   18:30    0.000     999.000     25.4     75     0.6      38     1.8   795.80    7.65   -358.90  
 361   18:40    0.000     999.000     25.5     74     1.6      28     2.8   795.80    7.65   -359.00  
 361   18:50    0.000     999.000     25.5     74     1.5      32     2.4   795.70    7.65   -359.00  
 361   19:00    0.000     999.000     25.5     74     2.2      24     3.2   795.70    7.65   -359.00  
 361   19:10    0.000     999.000     25.5     75     2.2      25     3.5   795.90    7.65   -359.00  
 361   19:20    0.000     999.000     25.5     75     1.2      19     2.2   795.90    7.65   -359.00  
 361   19:30    0.000     999.000     25.4     75     0.6      27     2.4   795.90    7.65   -359.00  
 361   19:40    0.000     999.000     25.3     72     1.7      34     3.0   795.90    7.65   -359.00  
 361   19:50    0.000     999.000     25.2     70     2.0      26     3.0   796.00    7.65   -359.00  
 361   20:00    0.000     999.000     25.0     70     1.1      30     2.9   796.00    7.65   -359.00  
 361   20:10    0.000     999.000     24.8     71     1.8      31     2.9   796.10    7.65   -359.00  
 361   20:20    0.000     999.000     24.6     71     1.7      26     2.6   796.20    7.65   -359.00  
 361   20:30    0.000     999.000     24.3     72     1.2      27     2.6   796.40    7.65   -359.00  
 361   20:40    0.000     999.000     24.1     70     1.9      29     3.2   796.30    7.65   -359.00  
 361   20:50    0.000     999.000     23.8     71     1.9      28     2.9   796.40    7.65   -359.00  
 361   21:00    0.000     999.000     23.6     70     1.0      33     2.8   796.30    7.65   -359.00  
 361   21:10    0.000     999.000     23.4     69     1.6      25     2.7   796.20    7.65   -359.00  
 361   21:20    0.000     999.000     23.3     66     3.1      25     3.6   796.20    7.65   -359.00  
 361   21:30    0.000     999.000     23.3     68     2.5      29     3.8   796.30    7.65   -359.00  
 361   21:40    0.000     999.000     23.2     69     2.6      26     3.8   796.30    7.65   -359.00  
 361   21:50    0.000     999.000     23.2     69     2.9      25     3.7   796.30    7.65   -359.00  
 361   22:00    0.000     999.000     23.1     70     2.7      27     3.4   796.40    7.65   -359.00  
 361   22:10    0.000     999.000     23.0     70     2.8      23     3.4   796.40    7.65   -359.00  
 361   22:20    0.000     999.000     22.8     72     3.1      25     3.9   796.20    7.65   -359.00  
 361   22:30    0.000     999.000     22.5     73     3.3      25     3.9   796.10    7.65   -359.00  
 361   22:40    0.000     999.000     22.4     69     2.7      21     4.2   796.10    7.65   -359.00  
 361   22:50    0.000     999.000     22.4     70     2.5      27     3.9   796.10    7.65   -359.00  
 361   23:00    0.000     999.000     22.4     69     2.6      21     4.1   796.10    7.65   -359.00  
 361   23:10    0.000     999.000     22.4     68     3.0      24     3.8   796.10    7.65   -359.00  
 361   23:20    0.000     999.000     22.3     70     2.8      28     4.2   796.20    7.65   -359.00  
 361   23:30    0.000     999.000     22.2     70     3.5      25     4.2   796.10    7.65   -359.00  
 361   23:40    0.000     999.000     22.1     67     3.3      27     3.9   796.00    7.65   -359.00  
 361   23:50    0.000     999.000     22.0     66     3.8      24     4.1   795.90    7.65   -359.00  
 362    0:00    0.000     999.000     21.8     67     3.6      26     4.0   795.90    7.65   -359.00  
 362    0:10    0.000     999.000     21.6     68     3.6      26     4.1   795.90    7.65   -359.00  
 362    0:20    0.000     999.000     21.3     68     3.5      25     4.1   795.90    7.65   -359.00  
 362    0:30    0.000     999.000     21.1     68     3.5      27     3.9   795.80    7.65   -359.00  
 362    0:40    0.000     999.000     20.9     68     3.8      25     4.2   795.70    7.66   -359.00  
 362    0:50    0.000     999.000     20.6     67     4.0      24     4.3   795.70    7.66   -359.00  
 362    1:00    0.000     999.000     20.5     65     3.9      26     4.3   795.60    7.66   -359.00  
 362    1:10    0.000     999.000     20.4     66     3.2      28     4.2   795.60    7.66   -359.00  
 362    1:20    0.000     999.000     20.3     66     3.5      27     4.4   795.60    7.67   -359.00  
 362    1:30    0.000     999.000     20.2     64     3.4      24     4.0   795.50    7.67   -359.00  
 362    1:40    0.000     999.000     20.0     63     3.7      25     4.6   795.40    7.68   -359.00  
 362    1:50    0.000     999.000     19.7     64     3.7      24     4.7   795.50    7.69   -359.00  
 362    2:00    0.000     999.000     19.8     64     3.1      27     4.3   795.70    7.69   -359.00  
 362    2:10    0.000     999.000     19.9     66     3.6      25     4.2   795.80    7.69   -359.00  
 362    2:20    0.000     999.000     19.8     65     2.9      20     4.0   795.70    7.69   -359.00  
 362    2:30    0.000     999.000     19.6     66     3.1      26     3.9   795.60    7.69   -359.00  
 362    2:40    0.000     999.000     19.6     66     2.9      26     3.9   795.50    7.69   -359.00  
 362    2:50    0.000     999.000     19.8     66     3.3      24     3.7   795.40    7.69   -359.00  
 362    3:00    0.000     999.000     20.0     65     2.7      24     3.6   795.20    7.69   -359.00  
 362    3:10    0.000     999.000     20.3     64     2.5      26     3.9   795.20    7.69   -359.00  
 362    3:20    0.000     999.000     20.7     62     3.4      25     4.1   795.10    7.69   -359.00  
 362    3:30    0.000     999.000     20.8     63     2.3      25     3.5   795.00    7.69   -359.00  
 362    3:40    0.000     999.000     20.6     62     2.6      24     3.8   794.80    7.69   -359.00  
 362    3:50    0.000     999.000     20.5     62     3.2      25     3.8   794.70    7.69   -359.00  
 362    4:00    0.000     999.000     20.4     60     3.4      24     3.9   794.50    7.69   -359.00  
 362    4:10    0.000     999.000     20.2     60     3.3      24     4.0   794.50    7.69   -359.00  
 362    4:20    0.000     999.000     20.1     60     3.5      25     4.2   794.50    7.69   -359.00  
 362    4:30    0.000     999.000     20.0     60     3.7      23     4.1   794.40    7.69   -359.00  
 362    4:40    0.000     999.000     19.7     60     4.0      24     4.6   794.40    7.69   -359.00  
 362    4:50    0.000     999.000     19.6     58     3.7      23     4.5   794.40    7.69   -359.00  
 362    5:00    0.000     999.000     19.9     58     3.2      26     3.8   794.40    7.69   -359.00  
 362    5:10    0.000     999.000     20.0     59     3.5      24     4.1   794.40    7.69   -359.00  
 362    5:20    0.000     999.000     20.2     57     3.3      26     4.3   794.40    7.69   -359.00  
 362    5:30    0.000     999.000     20.5     56     3.0      30     4.3   794.40    7.69   -359.00  
 362    5:40    0.000     999.000     20.8     56     2.6      34     4.1   794.40    7.69   -359.00  
 362    5:50    0.000     999.000     21.3     57     2.5      35     3.6   794.50    7.69   -359.00  
 362    6:00    0.000     999.000     22.1     56     1.9      43     3.6   794.50    7.69   -359.00  
 362    6:10    0.000     999.000     22.5     57     1.8      30     3.8   794.50    7.69   -359.00  
 362    6:20    0.000     999.000     22.9     56     2.0      31     4.0   794.60    7.69   -359.00  
 362    6:30    0.000     999.000     23.4     60     2.2      31     4.3   794.50    7.69   -359.00  
 362    6:40    0.000     999.000     23.6     60     1.8      24     3.3   794.50    7.69   -359.00  
 362    6:50    0.000     999.000     23.3     62     2.3      29     4.3   794.40    7.69   -359.00  
 362    7:00    0.000     999.000     22.9     64     2.7      29     3.7   794.40    7.69   -359.00  
 362    7:10    0.000     999.000     22.5     66     3.1      24     3.8   794.40    7.69   -359.00  
 362    7:20    0.001     999.000     22.3     70     2.5      30     3.6   794.40    7.69   -359.00  

Return to Central Sierra Snow Lab graphs page.


Western Regional Climate Center,wrcc@dri.edu